createdAt,value
2022-08-07T00:02:35.457Z,67.75
2022-08-07T00:04:06.182Z,67.87
2022-08-07T00:06:36.307Z,68.11
2022-08-07T00:09:17.018Z,68.45
2022-08-07T00:11:55.572Z,68.46
2022-08-07T00:14:30.194Z,68.70
2022-08-07T00:17:02.251Z,68.94
2022-08-07T00:19:34.034Z,69.24
2022-08-07T00:22:24.428Z,69.29
2022-08-07T00:25:07.315Z,69.68
2022-08-07T00:27:53.708Z,69.72
2022-08-07T00:30:27.267Z,69.86
2022-08-07T00:32:56.154Z,70.54
2022-08-07T00:35:24.092Z,70.60
2022-08-07T00:37:51.217Z,70.88
2022-08-07T00:40:36.281Z,71.13
2022-08-07T00:43:09.939Z,71.15
2022-08-07T00:45:38.829Z,71.39
2022-08-07T00:48:09.949Z,71.70
2022-08-07T00:50:43.884Z,71.98
2022-08-07T00:53:16.849Z,72.13
2022-08-07T00:56:00.678Z,71.92
2022-08-07T00:58:30.499Z,71.87
2022-08-07T01:00:57.410Z,71.68
2022-08-07T01:03:55.707Z,71.72
2022-08-07T01:06:11.201Z,71.63
2022-08-07T01:08:51.273Z,71.58
2022-08-07T01:12:04.872Z,71.68
2022-08-07T01:14:08.067Z,71.70
2022-08-07T01:16:37.141Z,71.82
2022-08-07T01:19:18.239Z,71.52
2022-08-07T01:21:49.596Z,71.50
2022-08-07T01:24:22.297Z,71.47
2022-08-07T01:26:54.336Z,71.56
2022-08-07T01:29:28.014Z,71.22
2022-08-07T01:31:59.425Z,71.65
2022-08-07T01:34:31.187Z,71.30
2022-08-07T01:37:01.017Z,71.33
2022-08-07T01:39:41.154Z,71.32
2022-08-07T01:42:37.772Z,71.51
2022-08-07T01:45:09.869Z,71.40
2022-08-07T01:48:18.255Z,71.28
2022-08-07T01:50:32.104Z,71.92
2022-08-07T01:53:02.141Z,71.98
2022-08-07T01:55:47.409Z,72.11
2022-08-07T01:58:29.370Z,72.33
2022-08-07T02:01:59.259Z,72.23
2022-08-07T02:04:18.927Z,72.50
2022-08-07T02:06:54.051Z,72.33
2022-08-07T02:09:52.428Z,72.07
2022-08-07T02:12:18.735Z,72.03
2022-08-07T02:14:56.830Z,72.18
2022-08-07T02:17:34.462Z,71.76
2022-08-07T02:20:09.883Z,71.54
2022-08-07T02:22:46.240Z,71.41
2022-08-07T02:25:17.644Z,71.53
2022-08-07T02:27:55.651Z,71.42
2022-08-07T02:30:24.430Z,71.24
2022-08-07T02:33:01.021Z,71.53
2022-08-07T02:36:29.619Z,71.43
2022-08-07T02:38:32.276Z,71.62
2022-08-07T02:41:04.281Z,71.63
2022-08-07T02:43:39.512Z,71.57
2022-08-07T02:46:08.546Z,71.08
2022-08-07T02:48:37.867Z,71.14
2022-08-07T02:51:29.096Z,70.96
2022-08-07T02:54:01.642Z,71.26
2022-08-07T02:56:33.039Z,71.09
2022-08-07T02:59:03.921Z,71.27
2022-08-07T03:01:35.647Z,70.77
2022-08-07T03:04:12.614Z,70.93
2022-08-07T03:06:48.235Z,70.84
2022-08-07T03:09:44.556Z,70.58
2022-08-07T03:12:21.942Z,70.73
2022-08-07T03:14:52.444Z,70.66
2022-08-07T03:17:20.238Z,70.47
2022-08-07T03:19:54.561Z,69.87
2022-08-07T03:22:24.134Z,70.17
2022-08-07T03:24:57.180Z,70.12
2022-08-07T03:27:30.010Z,69.86
2022-08-07T03:29:59.536Z,69.79
2022-08-07T03:32:33.308Z,69.68
2022-08-07T03:35:17.711Z,69.36
2022-08-07T03:37:55.295Z,69.08
2022-08-07T03:40:30.986Z,68.98
2022-08-07T03:43:13.545Z,69.37
2022-08-07T03:45:48.434Z,68.90
2022-08-07T03:48:21.609Z,68.10
2022-08-07T03:50:52.196Z,68.20
2022-08-07T03:54:00.790Z,67.71
2022-08-07T03:56:32.767Z,67.31
2022-08-07T03:59:08.571Z,67.36
2022-08-07T04:01:46.422Z,66.90
2022-08-07T04:04:17.859Z,66.71
2022-08-07T04:06:50.702Z,66.80
2022-08-07T04:09:19.710Z,66.85
2022-08-07T04:12:23.385Z,67.32
2022-08-07T04:14:43.799Z,66.84
2022-08-07T04:17:21.033Z,66.32
2022-08-07T04:19:52.465Z,66.52
2022-08-07T04:22:29.091Z,66.27
2022-08-07T04:25:01.179Z,66.72
2022-08-07T04:27:35.598Z,66.52
2022-08-07T04:30:11.923Z,66.68
2022-08-07T04:32:58.147Z,65.56
2022-08-07T04:35:35.508Z,65.84
2022-08-07T04:38:09.025Z,65.75
2022-08-07T04:40:51.401Z,65.87
2022-08-07T04:43:53.560Z,65.62
2022-08-07T04:47:04.574Z,65.58
2022-08-07T04:49:58.120Z,65.38
2022-08-07T04:52:56.184Z,65.32
2022-08-07T04:58:13.074Z,65.21
2022-08-07T04:59:17.004Z,65.08
2022-08-07T05:01:44.840Z,64.91
2022-08-07T05:04:53.589Z,64.74
2022-08-07T05:07:36.887Z,64.07
2022-08-07T05:10:11.016Z,64.63
2022-08-07T05:13:09.999Z,64.61
2022-08-07T05:15:50.841Z,65.20
2022-08-07T05:18:29.603Z,66.25
2022-08-07T05:21:02.139Z,66.31
2022-08-07T05:23:53.334Z,66.61
2022-08-07T05:26:24.142Z,67.28
2022-08-07T05:29:04.571Z,67.49
2022-08-07T05:31:38.529Z,68.13
2022-08-07T05:34:15.856Z,68.36
2022-08-07T05:36:48.834Z,68.22
2022-08-07T05:40:14.033Z,68.24
2022-08-07T05:42:16.972Z,67.35
2022-08-07T05:45:14.662Z,67.00
2022-08-07T05:48:01.887Z,67.94
2022-08-07T05:50:35.642Z,67.18
2022-08-07T05:53:06.750Z,67.41
2022-08-07T05:56:03.719Z,67.50
2022-08-07T05:58:37.669Z,66.33
2022-08-07T06:01:12.193Z,66.08
2022-08-07T06:03:56.438Z,65.26
2022-08-07T06:06:29.760Z,63.53
2022-08-07T06:09:04.557Z,62.92
2022-08-07T06:11:34.757Z,64.74
2022-08-07T06:14:11.763Z,64.45
2022-08-07T06:16:50.151Z,63.21
2022-08-07T06:19:47.465Z,61.96
2022-08-07T06:22:14.461Z,60.63
2022-08-07T06:24:52.610Z,61.55
2022-08-07T06:28:00.305Z,62.63
2022-08-07T06:30:31.784Z,61.82
2022-08-07T06:33:01.215Z,63.08
2022-08-07T06:35:39.171Z,63.34
2022-08-07T06:38:20.269Z,63.53
2022-08-07T06:40:51.227Z,64.34
2022-08-07T06:43:23.564Z,63.74
2022-08-07T06:46:12.912Z,64.99
2022-08-07T06:48:42.119Z,64.80
2022-08-07T06:51:31.170Z,63.71
2022-08-07T06:55:29.404Z,65.19
2022-08-07T06:56:54.559Z,65.27
2022-08-07T07:00:11.760Z,64.92
2022-08-07T07:02:48.777Z,65.88
2022-08-07T07:05:13.023Z,65.91
2022-08-07T07:08:00.127Z,67.23
2022-08-07T07:10:33.485Z,67.08
2022-08-07T07:13:07.975Z,66.23
2022-08-07T07:15:43.164Z,65.07
2022-08-07T07:18:48.225Z,65.53
2022-08-07T07:21:40.577Z,66.42
2022-08-07T07:24:19.481Z,66.16
2022-08-07T07:26:52.060Z,66.04
2022-08-07T07:29:40.151Z,65.42
2022-08-07T07:32:13.953Z,65.48
2022-08-07T07:34:46.640Z,64.50
2022-08-07T07:37:21.974Z,65.56
2022-08-07T07:40:10.415Z,64.58
2022-08-07T07:42:51.010Z,62.49
2022-08-07T07:46:38.538Z,63.99
2022-08-07T07:48:35.063Z,63.31
2022-08-07T07:51:07.698Z,61.53
2022-08-07T07:53:51.302Z,61.33
2022-08-07T07:56:29.646Z,61.72
2022-08-07T07:59:04.296Z,64.19
2022-08-07T08:02:05.164Z,64.63
2022-08-07T08:04:27.610Z,64.28
2022-08-07T08:06:55.170Z,65.13
2022-08-07T08:09:29.480Z,65.05
2022-08-07T08:12:01.833Z,63.87
2022-08-07T08:14:34.166Z,64.84
2022-08-07T08:17:55.934Z,65.50
2022-08-07T08:20:16.977Z,66.15
2022-08-07T08:23:08.366Z,67.98
2022-08-07T08:25:56.902Z,65.69
2022-08-07T08:28:37.964Z,66.23
2022-08-07T08:31:07.753Z,65.76
2022-08-07T08:33:49.019Z,65.12
2022-08-07T08:36:25.727Z,65.87
2022-08-07T08:38:57.766Z,64.97
2022-08-07T08:41:58.981Z,63.64
2022-08-07T08:44:44.736Z,64.72
2022-08-07T08:47:52.797Z,64.48
2022-08-07T08:50:34.996Z,64.52
2022-08-07T08:53:19.739Z,63.97
2022-08-07T08:56:04.576Z,64.42
2022-08-07T08:58:54.323Z,65.25
2022-08-07T09:01:21.337Z,66.04
2022-08-07T09:04:11.201Z,64.76
2022-08-07T09:06:58.291Z,65.32
2022-08-07T09:09:57.224Z,64.87
2022-08-07T09:12:37.994Z,62.69
2022-08-07T09:16:23.066Z,62.03
2022-08-07T09:18:22.810Z,62.17
2022-08-07T09:21:57.905Z,62.68
2022-08-07T09:24:58.790Z,64.17
2022-08-07T09:28:00.514Z,64.48
2022-08-07T09:30:54.273Z,64.27
2022-08-07T09:33:57.190Z,63.54
2022-08-07T09:36:35.657Z,64.88
2022-08-07T09:39:27.426Z,66.48
2022-08-07T09:42:06.061Z,67.33
2022-08-07T09:47:50.658Z,67.38
2022-08-07T09:48:30.203Z,65.05
2022-08-07T09:52:15.526Z,62.89
2022-08-07T09:54:27.269Z,64.43
2022-08-07T09:57:17.990Z,63.70
2022-08-07T10:00:14.710Z,63.82
2022-08-07T10:03:08.433Z,64.22
2022-08-07T10:06:24.268Z,62.37
2022-08-07T10:09:34.273Z,63.19
2022-08-07T10:12:21.917Z,62.03
2022-08-07T10:15:05.389Z,61.45
2022-08-07T10:18:02.520Z,62.06
2022-08-07T10:21:02.490Z,61.89
2022-08-07T10:24:05.921Z,62.11
2022-08-07T10:26:51.819Z,62.24
2022-08-07T10:29:59.172Z,60.05
2022-08-07T10:33:08.382Z,59.65
2022-08-07T10:35:55.755Z,59.60
2022-08-07T10:38:35.754Z,60.09
2022-08-07T10:41:51.652Z,61.57
2022-08-07T10:44:37.942Z,61.66
2022-08-07T10:47:26.901Z,62.63
2022-08-07T10:50:12.538Z,64.17
2022-08-07T10:52:51.429Z,64.40
2022-08-07T10:56:30.816Z,65.59
2022-08-07T10:59:10.152Z,67.62
2022-08-07T11:02:12.343Z,68.37
2022-08-07T11:05:35.931Z,67.70
2022-08-07T11:08:42.607Z,65.59
2022-08-07T11:11:15.736Z,66.75
2022-08-07T11:14:57.031Z,66.32
2022-08-07T11:17:07.389Z,65.66
2022-08-07T11:19:43.365Z,64.42
2022-08-07T11:22:26.554Z,64.31
2022-08-07T11:25:19.806Z,65.05
2022-08-07T11:28:15.292Z,63.74
2022-08-07T11:30:51.299Z,64.34
2022-08-07T11:33:53.710Z,63.23
2022-08-07T11:36:36.984Z,61.93
2022-08-07T11:39:19.996Z,61.43
2022-08-07T11:42:05.493Z,61.40
2022-08-07T11:44:52.274Z,60.99
2022-08-07T11:48:06.088Z,62.75
2022-08-07T11:50:59.919Z,65.23
2022-08-07T11:53:43.111Z,65.04
2022-08-07T11:57:04.852Z,63.81
2022-08-07T12:00:11.300Z,63.96
2022-08-07T12:02:55.363Z,63.51
2022-08-07T12:05:47.101Z,61.85
2022-08-07T12:08:34.649Z,61.38
2022-08-07T12:11:20.718Z,60.54
2022-08-07T12:14:19.179Z,61.68
2022-08-07T12:16:54.777Z,61.22
2022-08-07T12:20:10.325Z,61.13
2022-08-07T12:23:09.411Z,59.67
2022-08-07T12:26:02.822Z,59.86
2022-08-07T12:28:53.189Z,58.52
2022-08-07T12:32:03.851Z,58.59
2022-08-07T12:34:36.037Z,57.48
2022-08-07T12:37:11.142Z,57.53
2022-08-07T12:39:51.387Z,57.90
2022-08-07T12:42:27.929Z,58.65
2022-08-07T12:44:59.130Z,58.97
2022-08-07T12:48:04.232Z,58.39
2022-08-07T12:51:17.269Z,58.44
2022-08-07T12:54:02.876Z,58.10
2022-08-07T12:56:55.252Z,59.05
2022-08-07T12:59:33.389Z,58.21
2022-08-07T13:02:33.164Z,58.07
2022-08-07T13:05:01.167Z,59.26
2022-08-07T13:08:14.673Z,60.43
2022-08-07T13:11:07.359Z,59.43
2022-08-07T13:13:53.978Z,59.84
2022-08-07T13:16:32.542Z,59.32
2022-08-07T13:19:21.690Z,58.83
2022-08-07T13:22:19.969Z,58.72
2022-08-07T13:25:00.436Z,58.16
2022-08-07T13:28:11.206Z,57.63
2022-08-07T13:30:39.905Z,58.04
2022-08-07T13:34:14.713Z,58.03
2022-08-07T13:36:25.886Z,57.92
2022-08-07T13:39:11.166Z,57.82
2022-08-07T13:41:48.143Z,58.05
2022-08-07T13:44:26.843Z,57.64
2022-08-07T13:47:02.922Z,57.41
2022-08-07T13:50:35.586Z,57.78
2022-08-07T13:52:32.482Z,56.77
2022-08-07T13:55:10.810Z,56.58
2022-08-07T13:57:48.726Z,56.45
2022-08-07T14:00:50.600Z,56.67
2022-08-07T14:03:28.948Z,56.22
2022-08-07T14:06:12.710Z,55.67
2022-08-07T14:08:45.213Z,55.43
2022-08-07T14:11:19.143Z,55.58
2022-08-07T14:13:56.030Z,55.74
2022-08-07T14:16:33.482Z,56.97
2022-08-07T14:19:03.201Z,58.35
2022-08-07T14:22:03.389Z,59.28
2022-08-07T14:24:37.612Z,60.44
2022-08-07T14:28:09.357Z,60.91
2022-08-07T14:30:11.365Z,61.56
2022-08-07T14:32:56.922Z,62.08
2022-08-07T14:35:44.814Z,64.24
2022-08-07T14:38:26.336Z,64.41
2022-08-07T14:41:00.817Z,65.07
2022-08-07T14:43:55.518Z,65.12
2022-08-07T14:46:30.721Z,68.72
2022-08-07T14:49:55.928Z,68.75
2022-08-07T14:54:41.984Z,68.69
2022-08-07T14:57:18.716Z,69.04
2022-08-07T15:00:03.490Z,67.95
2022-08-07T15:05:23.395Z,67.52
2022-08-07T15:16:33.626Z,65.42
2022-08-07T15:19:05.624Z,63.97
2022-08-07T15:21:59.463Z,63.68
2022-08-07T15:25:15.912Z,63.10
2022-08-07T15:27:25.895Z,63.75
2022-08-07T15:33:01.402Z,63.43
2022-08-07T15:36:01.599Z,63.19
2022-08-07T15:38:30.694Z,64.25
2022-08-07T15:41:23.652Z,64.30
2022-08-07T15:44:00.551Z,65.34
2022-08-07T15:46:32.284Z,65.41
2022-08-07T15:49:13.181Z,65.32
2022-08-07T15:54:39.291Z,65.64
2022-08-07T15:57:39.241Z,64.83
2022-08-07T16:00:04.369Z,64.23
2022-08-07T16:02:41.353Z,65.04
2022-08-07T16:05:18.086Z,64.80
2022-08-07T16:08:33.271Z,64.17
2022-08-07T16:10:48.728Z,64.58
2022-08-07T16:13:57.806Z,65.02
2022-08-07T16:16:47.540Z,65.88
2022-08-07T16:19:59.768Z,66.44
2022-08-07T16:22:54.516Z,67.32
2022-08-07T16:25:23.077Z,70.97
2022-08-07T16:29:18.863Z,71.20
2022-08-07T16:31:51.868Z,71.21
2022-08-07T16:34:39.555Z,71.98
2022-08-07T16:38:06.628Z,72.48
2022-08-07T16:40:05.641Z,74.01
2022-08-07T16:42:44.776Z,73.87
2022-08-07T16:46:33.756Z,73.72
2022-08-07T16:49:04.374Z,72.73
2022-08-07T16:52:06.527Z,71.98
2022-08-07T16:55:13.048Z,72.22
2022-08-07T16:58:03.980Z,71.28
2022-08-07T17:00:40.926Z,70.83
2022-08-07T17:03:17.539Z,70.43
2022-08-07T17:06:29.909Z,69.89
2022-08-07T17:09:14.409Z,68.29
2022-08-07T17:12:33.873Z,65.86
2022-08-07T17:15:07.179Z,67.56
2022-08-07T17:17:48.571Z,68.78
2022-08-07T17:20:21.458Z,69.44
2022-08-07T17:23:12.856Z,69.98
2022-08-07T17:26:29.953Z,70.78
2022-08-07T17:28:58.040Z,70.38
2022-08-07T17:32:02.691Z,69.74
2022-08-07T17:35:50.459Z,69.00
2022-08-07T17:38:09.724Z,68.28
2022-08-07T17:40:56.830Z,67.86
2022-08-07T17:44:01.608Z,68.02
2022-08-07T17:46:52.453Z,67.67
2022-08-07T17:49:30.281Z,67.64
2022-08-07T17:52:30.726Z,67.93
2022-08-07T17:55:14.205Z,67.37
2022-08-07T17:58:07.182Z,67.16
2022-08-07T18:00:49.022Z,67.86
2022-08-07T18:03:28.644Z,68.42
2022-08-07T18:06:36.691Z,69.08
2022-08-07T18:09:05.953Z,70.11
2022-08-07T18:12:06.877Z,70.95
2022-08-07T18:14:46.404Z,71.49
2022-08-07T18:18:46.130Z,71.46
2022-08-07T18:21:12.801Z,71.63
2022-08-07T18:23:57.096Z,71.25
2022-08-07T18:26:38.142Z,71.44
2022-08-07T18:30:07.343Z,70.43
2022-08-07T18:32:28.554Z,70.44
2022-08-07T18:35:30.088Z,70.30
2022-08-07T18:38:55.823Z,70.44
2022-08-07T18:41:46.005Z,70.92
2022-08-07T18:45:39.916Z,71.01
2022-08-07T18:48:01.451Z,70.41
2022-08-07T18:50:45.974Z,69.15
2022-08-07T18:53:39.651Z,68.58
2022-08-07T18:56:31.640Z,67.91
2022-08-07T18:59:57.854Z,67.51
2022-08-07T19:02:34.529Z,67.56
2022-08-07T19:05:25.717Z,67.13
2022-08-07T19:08:33.053Z,67.18
2022-08-07T19:11:15.483Z,66.75
2022-08-07T19:14:00.703Z,66.73
2022-08-07T19:17:04.571Z,66.64
2022-08-07T19:19:46.507Z,66.18
2022-08-07T19:22:30.779Z,66.17
2022-08-07T19:25:05.764Z,65.76
2022-08-07T19:28:29.554Z,65.09
2022-08-07T19:31:05.544Z,65.24
2022-08-07T19:33:15.795Z,65.10
2022-08-07T19:35:53.732Z,65.16
2022-08-07T19:38:21.647Z,65.14
2022-08-07T19:40:51.846Z,64.96
2022-08-07T19:43:50.224Z,64.95
2022-08-07T19:46:10.779Z,65.09
2022-08-07T19:48:42.732Z,65.06
2022-08-07T19:51:19.315Z,65.01
2022-08-07T19:54:34.265Z,64.84
2022-08-07T19:58:02.350Z,65.00
2022-08-07T19:59:39.949Z,64.92
2022-08-07T20:02:19.267Z,64.86
2022-08-07T20:04:50.090Z,64.19
2022-08-07T20:07:23.980Z,64.38
2022-08-07T20:10:35.582Z,64.38
2022-08-07T20:12:56.776Z,63.96
2022-08-07T20:15:33.019Z,64.19
2022-08-07T20:18:14.680Z,64.01
2022-08-07T20:20:46.890Z,63.77
2022-08-07T20:23:32.825Z,63.85
2022-08-07T20:26:09.896Z,63.43
2022-08-07T20:28:39.906Z,63.48
2022-08-07T20:31:21.249Z,63.48
2022-08-07T20:33:56.707Z,63.51
2022-08-07T20:36:27.219Z,63.55
2022-08-07T20:39:00.436Z,63.71
2022-08-07T20:41:38.085Z,63.42
2022-08-07T20:44:12.577Z,63.74
2022-08-07T20:46:44.075Z,63.81
2022-08-07T20:49:58.311Z,63.95
2022-08-07T20:52:07.834Z,63.80
2022-08-07T20:54:41.666Z,63.68
2022-08-07T20:57:25.936Z,64.15
2022-08-07T21:00:06.530Z,64.28
2022-08-07T21:03:00.678Z,64.38
2022-08-07T21:05:50.739Z,64.53
2022-08-07T21:08:38.112Z,64.21
2022-08-07T21:11:14.456Z,64.17
2022-08-07T21:14:16.416Z,64.58
2022-08-07T21:16:56.947Z,64.42
2022-08-07T21:19:51.659Z,64.49
2022-08-07T21:22:25.559Z,64.51
2022-08-07T21:25:29.793Z,64.46
2022-08-07T21:28:16.881Z,64.45
2022-08-07T21:31:08.758Z,64.87
2022-08-07T21:33:45.521Z,64.47
2022-08-07T21:36:36.106Z,64.43
2022-08-07T21:39:47.691Z,64.22
2022-08-07T21:42:48.881Z,64.40
2022-08-07T21:46:08.200Z,64.35
2022-08-07T21:48:55.910Z,63.87
2022-08-07T21:51:32.366Z,63.85
2022-08-07T21:54:11.152Z,63.73
2022-08-07T21:56:49.358Z,63.66
2022-08-07T21:59:16.086Z,63.85
2022-08-07T22:02:10.747Z,64.22
2022-08-07T22:04:51.323Z,63.99
2022-08-07T22:07:48.601Z,64.17
2022-08-07T22:10:17.713Z,65.52
2022-08-07T22:12:55.686Z,66.10
2022-08-07T22:16:38.451Z,65.79
2022-08-07T22:18:24.059Z,65.50
2022-08-07T22:22:02.590Z,65.40
2022-08-07T22:24:33.003Z,65.61
2022-08-07T22:27:33.882Z,65.76
2022-08-07T22:30:12.760Z,64.96
2022-08-07T22:33:02.607Z,65.24
2022-08-07T22:35:39.777Z,65.73
2022-08-07T22:38:20.573Z,65.53
2022-08-07T22:41:07.440Z,65.99
2022-08-07T22:43:52.036Z,66.13
2022-08-07T22:47:06.509Z,66.07
2022-08-07T22:49:59.518Z,66.05
2022-08-07T22:52:50.924Z,66.57
2022-08-07T22:55:29.994Z,66.42
2022-08-07T22:58:28.194Z,66.17
2022-08-07T23:01:10.140Z,66.16
2022-08-07T23:03:57.237Z,66.01
2022-08-07T23:06:55.066Z,65.87
2022-08-07T23:10:05.322Z,65.74
2022-08-07T23:12:53.578Z,65.56
2022-08-07T23:16:04.665Z,65.58
2022-08-07T23:18:42.370Z,65.43
2022-08-07T23:21:21.015Z,65.45
2022-08-07T23:24:05.534Z,65.42
2022-08-07T23:26:50.235Z,66.01
2022-08-07T23:30:38.324Z,66.04
2022-08-07T23:34:23.216Z,66.31
2022-08-07T23:36:17.327Z,66.60
2022-08-07T23:38:54.550Z,66.16
2022-08-07T23:42:01.457Z,66.28
2022-08-07T23:44:46.609Z,66.67
2022-08-07T23:47:26.846Z,67.24
2022-08-07T23:50:16.361Z,66.98
2022-08-07T23:53:15.289Z,67.36
2022-08-07T23:55:57.786Z,67.09
2022-08-07T23:58:46.613Z,67.28
